createdAt,value
2022-10-23T00:00:25.111Z,1.17
2022-10-23T00:02:57.227Z,1.08
2022-10-23T00:05:32.078Z,1.13
2022-10-23T00:08:03.797Z,0.90
2022-10-23T00:10:35.296Z,1.30
2022-10-23T00:13:06.312Z,0.90
2022-10-23T00:15:38.973Z,0.80
2022-10-23T00:18:10.016Z,0.70
2022-10-23T00:20:43.428Z,0.70
2022-10-23T00:23:14.053Z,0.80
2022-10-23T00:25:45.192Z,0.77
2022-10-23T00:28:15.858Z,0.60
2022-10-23T00:30:46.963Z,0.65
2022-10-23T00:33:19.702Z,0.82
2022-10-23T00:35:53.489Z,0.77
2022-10-23T00:38:26.484Z,0.88
2022-10-23T00:40:57.764Z,0.95
2022-10-23T00:43:32.239Z,1.00
2022-10-23T00:46:03.366Z,1.13
2022-10-23T00:48:34.187Z,0.80
2022-10-23T00:51:08.535Z,0.70
2022-10-23T00:53:39.373Z,0.82
2022-10-23T00:56:11.008Z,0.80
2022-10-23T00:58:41.940Z,1.10
2022-10-23T01:01:21.203Z,0.70
2022-10-23T01:03:53.055Z,1.00
2022-10-23T01:06:35.761Z,0.80
2022-10-23T01:09:12.798Z,0.60
2022-10-23T01:11:50.765Z,0.68
2022-10-23T01:14:29.325Z,0.52
2022-10-23T01:17:09.471Z,0.73
2022-10-23T01:19:59.078Z,0.68
2022-10-23T01:22:57.548Z,0.80
2022-10-23T01:25:44.077Z,0.70
2022-10-23T01:28:24.306Z,0.52
2022-10-23T01:30:55.958Z,1.10
2022-10-23T01:33:30.542Z,0.85
2022-10-23T01:36:06.190Z,0.93
2022-10-23T01:38:44.376Z,1.52
2022-10-23T01:41:28.050Z,1.13
2022-10-23T01:44:10.330Z,0.70
2022-10-23T01:46:42.036Z,0.80
2022-10-23T01:49:17.015Z,1.05
2022-10-23T01:51:54.118Z,0.90
2022-10-23T01:54:28.279Z,0.80
2022-10-23T01:57:00.805Z,0.85
2022-10-23T01:59:40.288Z,0.90
2022-10-23T02:02:15.154Z,0.77
2022-10-23T02:04:53.669Z,0.77
2022-10-23T02:07:24.494Z,0.82
2022-10-23T02:09:55.322Z,0.60
2022-10-23T02:12:33.217Z,1.83
2022-10-23T02:15:14.540Z,1.08
2022-10-23T02:17:53.125Z,1.00
2022-10-23T02:20:31.398Z,1.00
2022-10-23T02:23:08.244Z,1.10
2022-10-23T02:25:45.264Z,0.77
2022-10-23T02:28:22.602Z,1.17
2022-10-23T02:30:57.552Z,1.15
2022-10-23T02:33:30.706Z,1.10
2022-10-23T02:36:01.714Z,0.73
2022-10-23T02:38:40.719Z,0.88
2022-10-23T02:41:31.955Z,0.90
2022-10-23T02:44:11.787Z,0.80
2022-10-23T02:46:53.999Z,0.90
2022-10-23T02:49:30.910Z,0.98
2022-10-23T02:54:47.564Z,1.00
2022-10-23T02:57:25.896Z,0.85
2022-10-23T03:00:04.620Z,1.05
2022-10-23T03:02:43.037Z,0.88
2022-10-23T03:05:20.387Z,1.02
2022-10-23T03:07:53.029Z,1.00
2022-10-23T03:10:24.967Z,1.05
2022-10-23T03:12:57.509Z,1.20
2022-10-23T03:15:29.332Z,0.98
2022-10-23T03:18:03.390Z,1.33
2022-10-23T03:20:34.727Z,1.38
2022-10-23T03:23:06.223Z,0.82
2022-10-23T03:25:37.452Z,1.30
2022-10-23T03:28:08.906Z,1.20
2022-10-23T03:30:40.963Z,1.20
2022-10-23T03:33:14.994Z,1.30
2022-10-23T03:38:38.989Z,1.30
2022-10-23T03:41:10.123Z,0.98
2022-10-23T03:43:40.839Z,1.17
2022-10-23T03:46:13.153Z,1.70
2022-10-23T03:48:47.072Z,1.17
2022-10-23T03:51:18.273Z,0.82
2022-10-23T03:53:49.247Z,0.95
2022-10-23T03:56:21.030Z,1.02
2022-10-23T03:58:52.184Z,1.27
2022-10-23T04:01:23.331Z,0.90
2022-10-23T04:03:57.421Z,0.65
2022-10-23T04:06:29.742Z,1.00
2022-10-23T04:09:02.208Z,0.70
2022-10-23T04:11:33.172Z,0.85
2022-10-23T04:14:04.032Z,1.05
2022-10-23T04:16:34.764Z,1.35
2022-10-23T04:19:08.624Z,0.85
2022-10-23T04:21:39.592Z,0.82
2022-10-23T04:24:10.885Z,1.13
2022-10-23T04:26:41.863Z,1.23
2022-10-23T04:29:14.847Z,1.10
2022-10-23T04:31:45.618Z,0.90
2022-10-23T04:34:19.346Z,1.08
2022-10-23T04:36:50.592Z,1.00
2022-10-23T04:39:21.331Z,1.38
2022-10-23T04:41:52.263Z,1.02
2022-10-23T04:44:24.824Z,1.10
2022-10-23T04:46:56.050Z,1.10
2022-10-23T04:49:30.938Z,1.10
2022-10-23T04:52:16.746Z,0.90
2022-10-23T04:55:23.213Z,1.02
2022-10-23T04:58:09.524Z,1.05
2022-10-23T05:00:41.467Z,1.05
2022-10-23T05:03:13.301Z,1.33
2022-10-23T05:05:49.087Z,1.27
2022-10-23T05:11:30.666Z,0.80
2022-10-23T05:14:01.407Z,1.40
2022-10-23T05:16:39.970Z,0.88
2022-10-23T05:19:13.914Z,1.25
2022-10-23T05:21:48.441Z,1.10
2022-10-23T05:24:19.478Z,1.13
2022-10-23T05:27:00.204Z,1.05
2022-10-23T05:29:33.803Z,1.17
2022-10-23T05:32:06.810Z,1.48
2022-10-23T05:34:40.152Z,1.15
2022-10-23T05:37:17.505Z,1.40
2022-10-23T05:39:48.829Z,1.33
2022-10-23T05:42:21.274Z,1.38
2022-10-23T05:44:55.333Z,1.10
2022-10-23T05:47:47.870Z,1.30
2022-10-23T05:50:41.405Z,1.15
2022-10-23T05:53:28.487Z,1.23
2022-10-23T05:56:15.253Z,1.13
2022-10-23T05:58:57.374Z,1.50
2022-10-23T06:01:54.416Z,1.40
2022-10-23T06:04:38.199Z,1.65
2022-10-23T06:07:32.311Z,1.15
2022-10-23T06:10:11.936Z,1.25
2022-10-23T06:12:47.952Z,1.17
2022-10-23T06:15:21.706Z,1.27
2022-10-23T06:18:08.471Z,2.83
2022-10-23T06:20:44.875Z,1.25
2022-10-23T06:23:24.481Z,1.40
2022-10-23T06:26:17.179Z,1.30
2022-10-23T06:31:53.301Z,1.60
2022-10-23T06:34:26.568Z,1.27
2022-10-23T06:36:58.647Z,1.50
2022-10-23T06:39:45.432Z,1.40
2022-10-23T06:42:21.974Z,1.50
2022-10-23T06:45:12.853Z,1.92
2022-10-23T06:48:12.740Z,1.55
2022-10-23T06:51:07.806Z,1.73
2022-10-23T06:53:45.480Z,1.60
2022-10-23T06:56:36.236Z,1.50
2022-10-23T06:59:14.460Z,1.88
2022-10-23T07:01:45.542Z,2.05
2022-10-23T07:04:17.515Z,1.45
2022-10-23T07:06:48.609Z,1.90
2022-10-23T07:09:20.330Z,1.83
2022-10-23T07:11:56.883Z,1.80
2022-10-23T07:14:39.631Z,2.17
2022-10-23T07:17:11.092Z,1.90
2022-10-23T07:19:42.052Z,2.17
2022-10-23T07:22:16.115Z,2.00
2022-10-23T07:25:01.343Z,2.40
2022-10-23T07:27:41.305Z,2.22
2022-10-23T07:30:19.084Z,2.20
2022-10-23T07:32:55.313Z,1.88
2022-10-23T07:35:35.565Z,1.65
2022-10-23T07:38:18.836Z,2.58
2022-10-23T07:40:55.551Z,2.40
2022-10-23T07:43:26.365Z,2.05
2022-10-23T07:46:00.452Z,2.03
2022-10-23T07:48:39.459Z,1.88
2022-10-23T07:51:12.074Z,2.15
2022-10-23T07:53:52.642Z,2.45
2022-10-23T07:56:43.836Z,1.83
2022-10-23T08:02:08.025Z,2.30
2022-10-23T08:04:41.838Z,1.83
2022-10-23T08:07:28.541Z,2.40
2022-10-23T08:10:01.570Z,1.98
2022-10-23T08:12:33.666Z,1.80
2022-10-23T08:15:04.787Z,2.63
2022-10-23T08:17:48.734Z,2.20
2022-10-23T08:20:42.903Z,2.13
2022-10-23T08:23:16.399Z,2.08
2022-10-23T08:25:48.249Z,2.20
2022-10-23T08:28:21.941Z,2.22
2022-10-23T08:31:00.884Z,2.53
2022-10-23T08:33:34.520Z,2.50
2022-10-23T08:36:05.569Z,2.20
2022-10-23T08:38:38.460Z,3.22
2022-10-23T08:41:26.490Z,2.22
2022-10-23T08:44:16.798Z,2.78
2022-10-23T08:46:51.097Z,2.30
2022-10-23T08:49:51.983Z,2.20
2022-10-23T08:52:29.329Z,2.70
2022-10-23T08:55:09.066Z,2.42
2022-10-23T08:57:46.418Z,2.40
2022-10-23T09:00:19.881Z,2.58
2022-10-23T09:02:53.430Z,2.85
2022-10-23T09:05:33.954Z,2.47
2022-10-23T09:08:15.041Z,2.63
2022-10-23T09:11:04.979Z,2.67
2022-10-23T09:13:59.186Z,2.78
2022-10-23T09:16:46.550Z,2.55
2022-10-23T09:19:21.805Z,2.38
2022-10-23T09:21:56.561Z,2.85
2022-10-23T09:24:31.862Z,2.97
2022-10-23T09:29:56.811Z,3.05
2022-10-23T09:32:37.977Z,2.53
2022-10-23T09:35:10.243Z,3.20
2022-10-23T09:37:53.431Z,2.45
2022-10-23T09:40:33.611Z,2.80
2022-10-23T09:43:07.272Z,2.50
2022-10-23T09:45:42.080Z,2.95
2022-10-23T09:48:19.439Z,2.92
2022-10-23T09:50:53.135Z,3.20
2022-10-23T09:53:35.932Z,2.42
2022-10-23T09:56:12.134Z,2.65
2022-10-23T09:58:56.990Z,2.97
2022-10-23T10:01:28.872Z,2.47
2022-10-23T10:04:09.764Z,2.40
2022-10-23T10:09:17.761Z,2.17
2022-10-23T10:11:53.058Z,2.40
2022-10-23T10:14:44.701Z,2.58
2022-10-23T10:17:24.461Z,2.05
2022-10-23T10:20:18.649Z,2.20
2022-10-23T10:22:56.843Z,2.45
2022-10-23T10:25:37.299Z,2.65
2022-10-23T10:28:30.626Z,2.20
2022-10-23T10:31:14.104Z,2.10
2022-10-23T10:33:59.127Z,2.25
2022-10-23T10:36:44.879Z,2.40
2022-10-23T10:39:24.785Z,2.13
2022-10-23T10:42:33.572Z,2.45
2022-10-23T10:45:33.156Z,2.42
2022-10-23T10:48:21.194Z,2.28
2022-10-23T10:51:22.850Z,3.00
2022-10-23T10:54:07.859Z,2.92
2022-10-23T10:56:43.064Z,2.55
2022-10-23T10:59:20.189Z,1.92
2022-10-23T11:01:58.462Z,2.17
2022-10-23T11:04:37.005Z,1.80
2022-10-23T11:07:13.031Z,1.95
2022-10-23T11:09:45.035Z,1.83
2022-10-23T11:12:21.031Z,2.47
2022-10-23T11:14:52.791Z,1.87
2022-10-23T11:17:30.349Z,1.88
2022-10-23T11:20:06.544Z,1.58
2022-10-23T11:22:46.739Z,1.63
2022-10-23T11:25:33.797Z,2.05
2022-10-23T11:28:21.766Z,2.63
2022-10-23T11:31:11.982Z,2.35
2022-10-23T11:34:34.180Z,2.60
2022-10-23T11:37:05.806Z,2.67
2022-10-23T11:39:38.960Z,1.38
2022-10-23T11:42:32.509Z,1.88
2022-10-23T11:45:03.404Z,2.20
2022-10-23T11:47:40.118Z,1.73
2022-10-23T11:50:33.459Z,1.92
2022-10-23T11:53:15.147Z,1.85
2022-10-23T11:56:06.901Z,1.70
2022-10-23T11:58:47.213Z,1.30
2022-10-23T12:01:32.150Z,1.60
2022-10-23T12:04:07.080Z,1.50
2022-10-23T12:06:46.764Z,1.10
2022-10-23T12:09:29.706Z,1.60
2022-10-23T12:12:20.024Z,1.63
2022-10-23T12:14:52.804Z,1.70
2022-10-23T12:17:41.126Z,1.50
2022-10-23T12:20:32.635Z,1.42
2022-10-23T12:23:30.506Z,1.80
2022-10-23T12:26:20.234Z,2.00
2022-10-23T12:29:02.181Z,1.52
2022-10-23T12:31:47.070Z,2.05
2022-10-23T12:34:35.700Z,2.05
2022-10-23T12:37:29.433Z,1.60
2022-10-23T12:40:03.530Z,1.83
2022-10-23T12:42:34.388Z,2.30
2022-10-23T12:45:06.856Z,1.67
2022-10-23T12:50:21.806Z,1.67
2022-10-23T12:52:58.424Z,2.38
2022-10-23T12:55:35.988Z,1.30
2022-10-23T12:58:06.870Z,1.00
2022-10-23T13:00:37.765Z,1.50
2022-10-23T13:03:08.406Z,1.48
2022-10-23T13:05:40.038Z,1.35
2022-10-23T13:08:12.946Z,1.90
2022-10-23T13:11:08.226Z,1.25
2022-10-23T13:13:43.650Z,1.30
2022-10-23T13:16:18.773Z,1.38
2022-10-23T13:18:49.948Z,2.13
2022-10-23T13:21:25.320Z,1.45
2022-10-23T13:23:57.381Z,0.65
2022-10-23T13:26:34.772Z,0.70
2022-10-23T13:29:09.511Z,0.63
2022-10-23T13:31:40.938Z,0.70
2022-10-23T13:34:26.016Z,1.05
2022-10-23T13:37:01.713Z,0.93
2022-10-23T13:39:34.358Z,1.05
2022-10-23T13:42:15.423Z,0.82
2022-10-23T13:44:46.672Z,1.27
2022-10-23T13:47:19.208Z,0.70
2022-10-23T13:49:50.077Z,0.80
2022-10-23T13:52:24.690Z,0.70
2022-10-23T13:54:55.658Z,0.88
2022-10-23T13:57:30.283Z,1.23
2022-10-23T14:00:01.199Z,0.70
2022-10-23T14:02:32.005Z,0.50
2022-10-23T14:05:02.791Z,0.73
2022-10-23T14:07:33.666Z,1.08
2022-10-23T14:10:05.076Z,0.65
2022-10-23T14:12:43.183Z,0.50
2022-10-23T14:15:15.243Z,0.80
2022-10-23T14:17:45.924Z,0.63
2022-10-23T14:20:19.083Z,0.65
2022-10-23T14:22:50.427Z,0.82
2022-10-23T14:25:21.279Z,0.90
2022-10-23T14:30:26.438Z,1.27
2022-10-23T14:32:57.541Z,0.77
2022-10-23T14:35:28.786Z,0.70
2022-10-23T14:37:59.675Z,0.55
2022-10-23T14:40:30.542Z,0.45
2022-10-23T14:43:03.835Z,1.27
2022-10-23T14:45:35.132Z,0.82
2022-10-23T14:48:06.029Z,0.68
2022-10-23T14:50:39.141Z,1.20
2022-10-23T14:53:10.053Z,0.85
2022-10-23T14:55:40.995Z,0.40
2022-10-23T14:58:15.596Z,0.70
2022-10-23T15:00:46.237Z,0.70
2022-10-23T15:03:16.876Z,0.82
2022-10-23T15:05:47.582Z,0.30
2022-10-23T15:08:18.432Z,0.73
2022-10-23T15:10:49.314Z,0.68
2022-10-23T15:13:23.062Z,0.82
2022-10-23T15:15:53.992Z,0.70
2022-10-23T15:18:26.505Z,0.60
2022-10-23T15:20:58.180Z,0.55
2022-10-23T15:23:29.137Z,0.70
2022-10-23T15:26:00.695Z,0.70
2022-10-23T15:28:34.876Z,0.90
2022-10-23T15:31:05.981Z,0.60
2022-10-23T15:33:39.085Z,0.65
2022-10-23T15:36:10.418Z,1.50
2022-10-23T15:38:41.439Z,0.68
2022-10-23T15:41:19.048Z,1.25
2022-10-23T15:43:52.485Z,1.00
2022-10-23T15:46:23.538Z,1.38
2022-10-23T15:48:54.687Z,0.80
2022-10-23T15:51:25.816Z,1.00
2022-10-23T15:53:57.239Z,1.50
2022-10-23T15:56:28.085Z,1.40
2022-10-23T15:59:02.187Z,1.13
2022-10-23T16:01:33.226Z,1.40
2022-10-23T16:04:04.112Z,1.88
2022-10-23T16:06:34.991Z,1.83
2022-10-23T16:09:06.369Z,2.03
2022-10-23T16:11:39.809Z,0.80
2022-10-23T16:14:16.239Z,1.08
2022-10-23T16:16:47.707Z,0.80
2022-10-23T16:19:21.950Z,1.70
2022-10-23T16:21:54.883Z,1.27
2022-10-23T16:24:26.282Z,1.50
2022-10-23T16:26:57.837Z,2.03
2022-10-23T16:29:31.893Z,1.05
2022-10-23T16:32:02.837Z,0.80
2022-10-23T16:34:34.085Z,0.93
2022-10-23T16:37:05.801Z,0.80
2022-10-23T16:39:53.216Z,0.70
2022-10-23T16:42:53.287Z,1.52
2022-10-23T16:45:50.528Z,1.10
2022-10-23T16:48:22.153Z,1.13
2022-10-23T16:50:53.624Z,1.10
2022-10-23T16:53:27.394Z,1.25
2022-10-23T16:55:59.804Z,0.77
2022-10-23T16:58:31.212Z,0.40
2022-10-23T17:01:07.434Z,1.00
2022-10-23T17:03:39.303Z,0.40
2022-10-23T17:06:13.257Z,0.60
2022-10-23T17:08:44.736Z,0.57
2022-10-23T17:11:18.207Z,0.60
2022-10-23T17:13:55.184Z,0.60
2022-10-23T17:16:35.242Z,0.70
2022-10-23T17:21:59.383Z,0.60
2022-10-23T17:24:31.221Z,1.00
2022-10-23T17:27:02.647Z,0.90
2022-10-23T17:29:33.744Z,0.63
2022-10-23T17:32:07.798Z,1.00
2022-10-23T17:34:38.585Z,1.63
2022-10-23T17:37:10.498Z,0.90
2022-10-23T17:39:41.278Z,1.17
2022-10-23T17:42:12.239Z,1.02
2022-10-23T17:44:43.329Z,1.30
2022-10-23T17:47:16.963Z,1.60
2022-10-23T17:49:48.115Z,1.30
2022-10-23T17:52:19.311Z,1.92
2022-10-23T17:54:55.589Z,1.58
2022-10-23T17:57:26.303Z,0.88
2022-10-23T17:59:57.219Z,1.02
2022-10-23T18:02:30.882Z,1.00
2022-10-23T18:05:02.149Z,0.80
2022-10-23T18:07:33.400Z,0.70
2022-10-23T18:10:04.373Z,0.93
2022-10-23T18:12:35.324Z,0.68
2022-10-23T18:15:07.089Z,0.70
2022-10-23T18:17:41.131Z,1.00
2022-10-23T18:20:12.986Z,1.02
2022-10-23T18:22:44.836Z,0.95
2022-10-23T18:25:16.201Z,1.30
2022-10-23T18:27:47.419Z,0.98
2022-10-23T18:30:19.293Z,0.95
2022-10-23T18:32:53.533Z,1.65
2022-10-23T18:35:24.330Z,1.60
2022-10-23T18:37:55.925Z,1.40
2022-10-23T18:40:28.038Z,1.30
2022-10-23T18:42:59.871Z,1.15
2022-10-23T18:45:31.233Z,1.30
2022-10-23T18:48:06.164Z,1.35
2022-10-23T18:50:39.910Z,1.02
2022-10-23T18:53:11.577Z,1.60
2022-10-23T18:55:49.476Z,1.55
2022-10-23T18:58:21.933Z,1.33
2022-10-23T19:00:53.186Z,1.17
2022-10-23T19:03:27.162Z,1.40
2022-10-23T19:05:58.192Z,2.00
2022-10-23T19:08:29.107Z,1.80
2022-10-23T19:11:01.908Z,1.92
2022-10-23T19:13:36.505Z,1.75
2022-10-23T19:16:12.373Z,1.92
2022-10-23T19:18:48.396Z,1.90
2022-10-23T19:21:21.657Z,2.15
2022-10-23T19:23:54.112Z,2.03
2022-10-23T19:26:24.803Z,2.13
2022-10-23T19:28:56.087Z,1.55
2022-10-23T19:31:27.433Z,2.10
2022-10-23T19:34:02.285Z,2.15
2022-10-23T19:36:34.650Z,1.33
2022-10-23T19:39:05.930Z,1.55
2022-10-23T19:41:36.931Z,1.98
2022-10-23T19:44:07.946Z,1.50
2022-10-23T19:46:39.549Z,2.65
2022-10-23T19:49:14.493Z,1.70
2022-10-23T19:51:51.319Z,2.20
2022-10-23T19:54:23.322Z,2.70
2022-10-23T19:56:54.409Z,2.17
2022-10-23T19:59:25.790Z,3.60
2022-10-23T20:01:56.756Z,3.08
2022-10-23T20:04:31.597Z,2.63
2022-10-23T20:07:02.325Z,2.35
2022-10-23T20:09:34.424Z,3.05
2022-10-23T20:12:05.817Z,2.15
2022-10-23T20:14:37.590Z,2.55
2022-10-23T20:17:08.939Z,2.95
2022-10-23T20:19:42.624Z,3.28
2022-10-23T20:22:13.283Z,2.75
2022-10-23T20:24:44.614Z,3.00
2022-10-23T20:27:17.325Z,2.85
2022-10-23T20:29:48.869Z,2.85
2022-10-23T20:32:20.033Z,4.00
2022-10-23T20:34:53.803Z,3.17
2022-10-23T20:37:24.486Z,2.13
2022-10-23T20:39:57.637Z,2.13
2022-10-23T20:42:28.251Z,3.38
2022-10-23T20:44:58.937Z,2.47
2022-10-23T20:47:29.599Z,2.88
2022-10-23T20:50:03.167Z,2.83
2022-10-23T20:52:34.035Z,3.47
2022-10-23T20:55:04.998Z,3.30
2022-10-23T20:57:35.645Z,4.45
2022-10-23T21:00:07.253Z,2.85
2022-10-23T21:02:37.998Z,2.42
2022-10-23T21:05:12.268Z,4.38
2022-10-23T21:07:43.218Z,2.45
2022-10-23T21:10:13.925Z,3.15
2022-10-23T21:12:47.522Z,3.47
2022-10-23T21:15:18.494Z,3.42
2022-10-23T21:17:50.699Z,3.08
2022-10-23T21:20:24.046Z,2.45
2022-10-23T21:22:57.778Z,3.55
2022-10-23T21:25:28.508Z,3.90
2022-10-23T21:27:59.168Z,3.17
2022-10-23T21:30:29.801Z,2.78
2022-10-23T21:33:00.674Z,3.42
2022-10-23T21:35:36.086Z,2.97
2022-10-23T21:38:07.102Z,3.55
2022-10-23T21:40:37.751Z,2.40
2022-10-23T21:43:10.786Z,3.67
2022-10-23T21:45:41.935Z,2.83
2022-10-23T21:48:12.648Z,3.72
2022-10-23T21:50:46.005Z,3.03
2022-10-23T21:53:16.817Z,4.25
2022-10-23T21:55:47.469Z,3.50
2022-10-23T21:58:18.097Z,5.28
2022-10-23T22:00:48.803Z,3.92
2022-10-23T22:03:19.723Z,3.25
2022-10-23T22:05:53.285Z,3.10
2022-10-23T22:08:23.987Z,2.67
2022-10-23T22:10:54.688Z,2.30
2022-10-23T22:13:25.289Z,2.50
2022-10-23T22:15:55.939Z,2.50
2022-10-23T22:18:26.563Z,2.65
2022-10-23T22:21:03.279Z,2.80
2022-10-23T22:23:34.075Z,2.85
2022-10-23T22:26:08.860Z,2.33
2022-10-23T22:28:39.503Z,3.28
2022-10-23T22:31:17.727Z,2.67
2022-10-23T22:33:48.651Z,2.28
2022-10-23T22:36:22.674Z,2.08
2022-10-23T22:38:53.610Z,1.88
2022-10-23T22:41:24.286Z,2.00
2022-10-23T22:43:58.395Z,1.30
2022-10-23T22:46:31.024Z,1.85
2022-10-23T22:49:02.617Z,1.38
2022-10-23T22:51:36.386Z,1.10
2022-10-23T22:54:07.090Z,1.50
2022-10-23T22:56:38.827Z,1.15
2022-10-23T22:59:09.911Z,1.30
2022-10-23T23:01:43.067Z,1.30
2022-10-23T23:07:12.610Z,1.13
2022-10-23T23:09:44.888Z,1.00
2022-10-23T23:12:16.981Z,0.85
2022-10-23T23:14:47.898Z,0.90
2022-10-23T23:17:18.581Z,0.60
2022-10-23T23:19:49.244Z,0.70
2022-10-23T23:22:22.557Z,0.75
2022-10-23T23:24:53.195Z,1.67
2022-10-23T23:27:23.969Z,1.85
2022-10-23T23:29:54.726Z,0.75
2022-10-23T23:32:25.625Z,0.75
2022-10-23T23:34:56.278Z,1.20
2022-10-23T23:37:29.847Z,1.35
2022-10-23T23:40:00.652Z,1.60
2022-10-23T23:42:32.731Z,2.33
2022-10-23T23:45:14.260Z,1.65
2022-10-23T23:47:46.150Z,2.50
2022-10-23T23:50:16.932Z,2.95
2022-10-23T23:52:50.397Z,2.53
2022-10-23T23:55:21.558Z,3.88
2022-10-23T23:57:52.211Z,2.78
